Airport View

Enter AWOS ICAO identifier for current METAR.

ex. KFNL

KEDU 261235Z AUTO 21006KT 10SM CLR 18/12 A2986 RMK AO1

26 Jun 2019 13:03

Frequency: 119.025

Phone: 530-754-6839

Other Area AWOS: KVCB - KSMF - KSAC - KSUU

TAF KSMF 261140Z 2612/2712 15009KT P6SM FEW250 FM262000 20015KT P6SM SCT250 FM270300 19009KT P6SM SKC